sensor_id;sensor_type;location;lat;lon;timestamp;pressure;altitude;pressure_sealevel;temperature;humidity
44481;BME280;30184;42.018;23.670;2023-12-22T00:00:09;90133.34;;;-2.46;100.00
44481;BME280;30184;42.018;23.670;2023-12-22T00:02:39;90118.97;;;-2.55;100.00
44481;BME280;30184;42.018;23.670;2023-12-22T00:05:08;90146.97;;;-2.30;100.00
44481;BME280;30184;42.018;23.670;2023-12-22T00:07:37;90033.78;;;-3.04;100.00
44481;BME280;30184;42.018;23.670;2023-12-22T00:10:07;90132.56;;;-2.39;100.00
44481;BME280;30184;42.018;23.670;2023-12-22T00:12:37;90140.88;;;-2.30;100.00
44481;BME280;30184;42.018;23.670;2023-12-22T00:15:08;90109.09;;;-2.58;100.00
44481;BME280;30184;42.018;23.670;2023-12-22T00:17:37;90133.28;;;-2.28;100.00
44481;BME280;30184;42.018;23.670;2023-12-22T00:20:07;90133.66;;;-2.26;100.00
44481;BME280;30184;42.018;23.670;2023-12-22T00:22:40;90125.69;;;-2.26;100.00
44481;BME280;30184;42.018;23.670;2023-12-22T00:25:10;90120.38;;;-2.22;100.00
44481;BME280;30184;42.018;23.670;2023-12-22T00:27:39;90128.72;;;-2.20;100.00
44481;BME280;30184;42.018;23.670;2023-12-22T00:30:11;90128.31;;;-2.19;100.00
44481;BME280;30184;42.018;23.670;2023-12-22T00:32:40;90119.63;;;-2.23;100.00
44481;BME280;30184;42.018;23.670;2023-12-22T00:35:09;90044.28;;;-2.65;100.00
44481;BME280;30184;42.018;23.670;2023-12-22T00:37:38;90037.91;;;-2.95;100.00
44481;BME280;30184;42.018;23.670;2023-12-22T00:40:08;90126.00;;;-2.06;100.00
44481;BME280;30184;42.018;23.670;2023-12-22T00:42:37;90116.13;;;-2.06;100.00
44481;BME280;30184;42.018;23.670;2023-12-22T00:45:07;90116.09;;;-2.02;100.00
44481;BME280;30184;42.018;23.670;2023-12-22T00:47:38;90122.22;;;-2.05;100.00
44481;BME280;30184;42.018;23.670;2023-12-22T00:50:07;90111.16;;;-2.04;100.00
44481;BME280;30184;42.018;23.670;2023-12-22T00:52:37;90113.81;;;-2.04;100.00
44481;BME280;30184;42.018;23.670;2023-12-22T00:55:06;90012.44;;;-2.72;100.00
44481;BME280;30184;42.018;23.670;2023-12-22T00:57:35;90123.25;;;-1.89;100.00
44481;BME280;30184;42.018;23.670;2023-12-22T01:00:06;90114.91;;;-1.87;100.00
44481;BME280;30184;42.018;23.670;2023-12-22T01:02:39;90116.38;;;-1.82;100.00
44481;BME280;30184;42.018;23.670;2023-12-22T01:05:08;89954.50;;;-2.87;100.00
44481;BME280;30184;42.018;23.670;2023-12-22T01:07:38;90101.19;;;-1.78;100.00
44481;BME280;30184;42.018;23.670;2023-12-22T01:10:07;90116.34;;;-1.75;100.00
44481;BME280;30184;42.018;23.670;2023-12-22T01:12:37;90098.53;;;-1.82;100.00
44481;BME280;30184;42.018;23.670;2023-12-22T01:15:07;90103.41;;;-1.70;100.00
44481;BME280;30184;42.018;23.670;2023-12-22T01:17:36;90099.22;;;-1.67;100.00
44481;BME280;30184;42.018;23.670;2023-12-22T01:20:07;90095.03;;;-1.68;100.00
44481;BME280;30184;42.018;23.670;2023-12-22T01:22:36;90093.13;;;-1.68;100.00
44481;BME280;30184;42.018;23.670;2023-12-22T01:25:06;90091.97;;;-1.67;100.00
44481;BME280;30184;42.018;23.670;2023-12-22T01:27:36;90058.00;;;-1.97;100.00
44481;BME280;30184;42.018;23.670;2023-12-22T01:30:07;90014.13;;;-2.30;100.00
44481;BME280;30184;42.018;23.670;2023-12-22T01:32:36;90080.94;;;-1.62;100.00
44481;BME280;30184;42.018;23.670;2023-12-22T01:35:07;90070.28;;;-1.62;100.00
44481;BME280;30184;42.018;23.670;2023-12-22T01:37:37;90073.72;;;-1.65;100.00
44481;BME280;30184;42.018;23.670;2023-12-22T01:40:08;90072.97;;;-1.62;100.00
44481;BME280;30184;42.018;23.670;2023-12-22T01:42:37;90064.22;;;-1.59;100.00
44481;BME280;30184;42.018;23.670;2023-12-22T01:45:08;90061.13;;;-1.57;100.00
44481;BME280;30184;42.018;23.670;2023-12-22T01:47:38;90035.09;;;-1.80;100.00
44481;BME280;30184;42.018;23.670;2023-12-22T01:50:10;90059.22;;;-1.53;100.00
44481;BME280;30184;42.018;23.670;2023-12-22T01:52:41;90173.97;;;-1.51;100.00
44481;BME280;30184;42.018;23.670;2023-12-22T01:55:11;90058.06;;;-1.52;100.00
44481;BME280;30184;42.018;23.670;2023-12-22T01:57:42;90065.53;;;-1.92;100.00
44481;BME280;30184;42.018;23.670;2023-12-22T02:00:13;90043.63;;;-1.51;100.00
44481;BME280;30184;42.018;23.670;2023-12-22T02:02:43;90045.13;;;-1.50;100.00
44481;BME280;30184;42.018;23.670;2023-12-22T02:05:13;90000.16;;;-1.78;100.00
44481;BME280;30184;42.018;23.670;2023-12-22T02:07:43;90023.34;;;-1.82;100.00
44481;BME280;30184;42.018;23.670;2023-12-22T02:10:12;90020.47;;;-2.13;100.00
44481;BME280;30184;42.018;23.670;2023-12-22T02:12:42;90043.25;;;-1.49;100.00
44481;BME280;30184;42.018;23.670;2023-12-22T02:15:11;90047.00;;;-1.47;100.00
44481;BME280;30184;42.018;23.670;2023-12-22T02:17:45;90071.38;;;-1.56;100.00
44481;BME280;30184;42.018;23.670;2023-12-22T02:20:19;90053.47;;;-1.48;100.00
44481;BME280;30184;42.018;23.670;2023-12-22T02:22:52;90021.78;;;-1.76;100.00
44481;BME280;30184;42.018;23.670;2023-12-22T02:25:21;89959.44;;;-2.20;100.00
44481;BME280;30184;42.018;23.670;2023-12-22T02:27:54;90031.78;;;-1.46;100.00
44481;BME280;30184;42.018;23.670;2023-12-22T02:30:32;90006.03;;;-1.57;100.00
44481;BME280;30184;42.018;23.670;2023-12-22T02:33:05;89943.25;;;-1.88;100.00
44481;BME280;30184;42.018;23.670;2023-12-22T02:35:37;90014.66;;;-1.42;100.00
44481;BME280;30184;42.018;23.670;2023-12-22T02:38:12;90014.66;;;-1.42;100.00
44481;BME280;30184;42.018;23.670;2023-12-22T02:40:41;90010.50;;;-1.46;100.00
44481;BME280;30184;42.018;23.670;2023-12-22T02:43:11;90021.84;;;-1.35;100.00
44481;BME280;30184;42.018;23.670;2023-12-22T02:45:39;90009.66;;;-1.33;100.00
44481;BME280;30184;42.018;23.670;2023-12-22T02:48:08;90000.53;;;-1.32;100.00
44481;BME280;30184;42.018;23.670;2023-12-22T02:50:38;90013.44;;;-1.30;100.00
44481;BME280;30184;42.018;23.670;2023-12-22T02:53:07;90010.03;;;-1.31;100.00
44481;BME280;30184;42.018;23.670;2023-12-22T02:55:38;89992.91;;;-1.30;100.00
44481;BME280;30184;42.018;23.670;2023-12-22T02:58:07;89995.16;;;-1.28;100.00
44481;BME280;30184;42.018;23.670;2023-12-22T03:00:36;89996.28;;;-1.26;100.00
44481;BME280;30184;42.018;23.670;2023-12-22T03:03:05;89990.19;;;-1.26;100.00
44481;BME280;30184;42.018;23.670;2023-12-22T03:05:34;89982.22;;;-1.26;100.00
44481;BME280;30184;42.018;23.670;2023-12-22T03:08:04;89990.59;;;-1.28;100.00
44481;BME280;30184;42.018;23.670;2023-12-22T03:10:33;89989.81;;;-1.25;100.00
44481;BME280;30184;42.018;23.670;2023-12-22T03:13:03;89989.81;;;-1.25;100.00
44481;BME280;30184;42.018;23.670;2023-12-22T03:15:33;89986.00;;;-1.24;100.00
44481;BME280;30184;42.018;23.670;2023-12-22T03:18:02;89978.44;;;-1.29;100.00
44481;BME280;30184;42.018;23.670;2023-12-22T03:20:31;89983.34;;;-1.24;100.00
44481;BME280;30184;42.018;23.670;2023-12-22T03:23:02;89974.22;;;-1.26;100.00
44481;BME280;30184;42.018;23.670;2023-12-22T03:25:31;89975.00;;;-1.26;100.00
44481;BME280;30184;42.018;23.670;2023-12-22T03:28:00;89944.56;;;-1.66;100.00
44481;BME280;30184;42.018;23.670;2023-12-22T03:30:31;89921.06;;;-1.67;100.00
44481;BME280;30184;42.018;23.670;2023-12-22T03:33:00;89971.94;;;-1.24;100.00
44481;BME280;30184;42.018;23.670;2023-12-22T03:35:29;89948.94;;;-1.45;100.00
44481;BME280;30184;42.018;23.670;2023-12-22T03:37:58;89970.50;;;-1.32;100.00
44481;BME280;30184;42.018;23.670;2023-12-22T03:40:28;89930.47;;;-1.59;100.00
44481;BME280;30184;42.018;23.670;2023-12-22T03:42:57;89967.47;;;-1.34;100.00
44481;BME280;30184;42.018;23.670;2023-12-22T03:45:26;89975.00;;;-1.26;100.00
44481;BME280;30184;42.018;23.670;2023-12-22T03:47:57;89975.00;;;-1.26;100.00
44481;BME280;30184;42.018;23.670;2023-12-22T03:50:26;89978.03;;;-1.27;100.00
44481;BME280;30184;42.018;23.670;2023-12-22T03:52:55;89979.94;;;-1.28;100.00
44481;BME280;30184;42.018;23.670;2023-12-22T03:55:25;89961.72;;;-1.29;100.00
44481;BME280;30184;42.018;23.670;2023-12-22T03:57:54;89971.25;;;-1.32;100.00
44481;BME280;30184;42.018;23.670;2023-12-22T04:00:23;89947.19;;;-1.59;100.00
44481;BME280;30184;42.018;23.670;2023-12-22T04:02:52;89917.81;;;-1.89;100.00
44481;BME280;30184;42.018;23.670;2023-12-22T04:05:24;89910.53;;;-1.81;100.00
44481;BME280;30184;42.018;23.670;2023-12-22T04:07:53;89968.69;;;-1.42;100.00
44481;BME280;30184;42.018;23.670;2023-12-22T04:10:22;89963.41;;;-1.46;100.00
44481;BME280;30184;42.018;23.670;2023-12-22T04:12:51;89964.97;;;-1.48;100.00
44481;BME280;30184;42.018;23.670;2023-12-22T04:15:20;89958.88;;;-1.49;100.00
44481;BME280;30184;42.018;23.670;2023-12-22T04:17:49;89962.69;;;-1.50;100.00
44481;BME280;30184;42.018;23.670;2023-12-22T04:20:19;89963.84;;;-1.51;100.00
44481;BME280;30184;42.018;23.670;2023-12-22T04:22:49;89961.56;;;-1.53;100.00
44481;BME280;30184;42.018;23.670;2023-12-22T04:25:18;89959.69;;;-1.56;100.00
44481;BME280;30184;42.018;23.670;2023-12-22T04:27:49;89886.06;;;-2.07;100.00
44481;BME280;30184;42.018;23.670;2023-12-22T04:30:18;89963.16;;;-1.59;100.00
44481;BME280;30184;42.018;23.670;2023-12-22T04:32:47;89962.38;;;-1.59;100.00
44481;BME280;30184;42.018;23.670;2023-12-22T04:35:16;89965.81;;;-1.59;100.00
44481;BME280;30184;42.018;23.670;2023-12-22T04:37:45;89963.16;;;-1.59;100.00
44481;BME280;30184;42.018;23.670;2023-12-22T04:40:16;89937.03;;;-1.71;100.00
44481;BME280;30184;42.018;23.670;2023-12-22T04:42:45;89939.97;;;-1.58;100.00
44481;BME280;30184;42.018;23.670;2023-12-22T04:45:14;89939.22;;;-1.59;100.00
44481;BME280;30184;42.018;23.670;2023-12-22T04:47:44;89946.06;;;-1.61;100.00
44481;BME280;30184;42.018;23.670;2023-12-22T04:50:14;89938.47;;;-1.63;100.00
44481;BME280;30184;42.018;23.670;2023-12-22T04:52:43;89945.69;;;-1.63;100.00
44481;BME280;30184;42.018;23.670;2023-12-22T04:55:12;89812.41;;;-2.47;100.00
44481;BME280;30184;42.018;23.670;2023-12-22T04:57:43;89936.22;;;-1.64;100.00
44481;BME280;30184;42.018;23.670;2023-12-22T05:00:13;89709.03;;;-3.13;100.00
44481;BME280;30184;42.018;23.670;2023-12-22T05:02:42;89931.66;;;-1.64;100.00
44481;BME280;30184;42.018;23.670;2023-12-22T05:05:11;89931.66;;;-1.64;100.00
44481;BME280;30184;42.018;23.670;2023-12-22T05:07:40;89928.97;;;-1.64;100.00
44481;BME280;30184;42.018;23.670;2023-12-22T05:10:09;89916.06;;;-1.62;100.00
44481;BME280;30184;42.018;23.670;2023-12-22T05:12:38;89920.97;;;-1.60;100.00
44481;BME280;30184;42.018;23.670;2023-12-22T05:15:09;89919.84;;;-1.59;100.00
44481;BME280;30184;42.018;23.670;2023-12-22T05:17:39;89916.41;;;-1.60;100.00
44481;BME280;30184;42.018;23.670;2023-12-22T05:20:09;89918.69;;;-1.58;100.00
44481;BME280;30184;42.018;23.670;2023-12-22T05:22:39;89910.28;;;-1.57;100.00
44481;BME280;30184;42.018;23.670;2023-12-22T05:25:08;89888.09;;;-1.77;100.00
44481;BME280;30184;42.018;23.670;2023-12-22T05:27:38;89912.56;;;-1.55;100.00
44481;BME280;30184;42.018;23.670;2023-12-22T05:30:12;89958.91;;;-1.53;100.00
44481;BME280;30184;42.018;23.670;2023-12-22T05:32:41;89915.19;;;-1.52;100.00
44481;BME280;30184;42.018;23.670;2023-12-22T05:35:11;89917.88;;;-1.52;100.00
44481;BME280;30184;42.018;23.670;2023-12-22T05:37:43;89934.94;;;-1.49;100.00
44481;BME280;30184;42.018;23.670;2023-12-22T05:40:12;89612.88;;;-3.72;100.00
44481;BME280;30184;42.018;23.670;2023-12-22T05:42:41;89932.63;;;-1.47;100.00
44481;BME280;30184;42.018;23.670;2023-12-22T05:45:12;89931.47;;;-1.46;100.00
44481;BME280;30184;42.018;23.670;2023-12-22T05:47:42;89909.19;;;-1.59;100.00
44481;BME280;30184;42.018;23.670;2023-12-22T05:50:11;89923.84;;;-1.44;100.00
44481;BME280;30184;42.018;23.670;2023-12-22T05:52:40;89926.53;;;-1.44;100.00
44481;BME280;30184;42.018;23.670;2023-12-22T05:55:09;89921.56;;;-1.42;100.00
44481;BME280;30184;42.018;23.670;2023-12-22T05:57:38;89919.28;;;-1.40;100.00
44481;BME280;30184;42.018;23.670;2023-12-22T06:00:08;89924.50;;;-1.70;100.00
44481;BME280;30184;42.018;23.670;2023-12-22T06:02:40;89918.81;;;-1.35;100.00
44481;BME280;30184;42.018;23.670;2023-12-22T06:05:09;89907.91;;;-1.44;100.00
44481;BME280;30184;42.018;23.670;2023-12-22T06:07:38;89939.03;;;-1.41;100.00
44481;BME280;30184;42.018;23.670;2023-12-22T06:10:08;89838.78;;;-1.85;100.00
44481;BME280;30184;42.018;23.670;2023-12-22T06:12:38;89930.47;;;-1.22;100.00
44481;BME280;30184;42.018;23.670;2023-12-22T06:15:07;89921.69;;;-1.19;100.00
44481;BME280;30184;42.018;23.670;2023-12-22T06:17:36;89920.50;;;-1.14;100.00
44481;BME280;30184;42.018;23.670;2023-12-22T06:20:08;89917.03;;;-1.11;100.00
44481;BME280;30184;42.018;23.670;2023-12-22T06:22:37;89884.53;;;-1.26;100.00
44481;BME280;30184;42.018;23.670;2023-12-22T06:25:06;89921.91;;;-1.02;100.00
44481;BME280;30184;42.018;23.670;2023-12-22T06:27:37;89919.94;;;-0.98;100.00
44481;BME280;30184;42.018;23.670;2023-12-22T06:30:07;89937.88;;;-1.02;100.00
44481;BME280;30184;42.018;23.670;2023-12-22T06:32:36;89841.75;;;-1.42;100.00
44481;BME280;30184;42.018;23.670;2023-12-22T06:35:09;89913.28;;;-0.83;100.00
44481;BME280;30184;42.018;23.670;2023-12-22T06:37:40;89851.34;;;-1.18;100.00
44481;BME280;30184;42.018;23.670;2023-12-22T06:40:10;89901.16;;;-0.84;100.00
44481;BME280;30184;42.018;23.670;2023-12-22T06:42:40;89915.00;;;-0.66;100.00
44481;BME280;30184;42.018;23.670;2023-12-22T06:45:10;89903.88;;;-0.61;100.00
44481;BME280;30184;42.018;23.670;2023-12-22T06:47:39;89866.34;;;-1.00;100.00
44481;BME280;30184;42.018;23.670;2023-12-22T06:50:10;89906.81;;;-0.52;100.00
44481;BME280;30184;42.018;23.670;2023-12-22T06:52:39;89907.53;;;-0.48;100.00
44481;BME280;30184;42.018;23.670;2023-12-22T06:55:08;89912.78;;;-0.44;100.00
44481;BME280;30184;42.018;23.670;2023-12-22T06:57:38;89911.53;;;-0.36;100.00
44481;BME280;30184;42.018;23.670;2023-12-22T07:00:08;89909.63;;;-0.35;100.00
44481;BME280;30184;42.018;23.670;2023-12-22T07:02:38;89919.75;;;-0.23;100.00
44481;BME280;30184;42.018;23.670;2023-12-22T07:05:31;89916.97;;;-0.16;100.00
44481;BME280;30184;42.018;23.670;2023-12-22T07:08:00;89904.78;;;-0.17;100.00
44481;BME280;30184;42.018;23.670;2023-12-22T07:10:29;89934.28;;;-0.01;100.00
44481;BME280;30184;42.018;23.670;2023-12-22T07:12:58;89865.94;;;-0.42;100.00
44481;BME280;30184;42.018;23.670;2023-12-22T07:15:27;89656.13;;;-2.15;100.00
44481;BME280;30184;42.018;23.670;2023-12-22T07:17:57;89929.63;;;0.03;100.00
44481;BME280;30184;42.018;23.670;2023-12-22T07:20:26;89907.16;;;0.27;100.00
44481;BME280;30184;42.018;23.670;2023-12-22T07:22:57;89905.81;;;0.39;100.00
44481;BME280;30184;42.018;23.670;2023-12-22T07:25:26;89901.47;;;0.49;100.00
44481;BME280;30184;42.018;23.670;2023-12-22T07:27:55;89860.63;;;0.28;100.00
44481;BME280;30184;42.018;23.670;2023-12-22T07:30:24;89898.91;;;0.65;100.00
44481;BME280;30184;42.018;23.670;2023-12-22T07:32:53;89902.59;;;0.71;100.00
44481;BME280;30184;42.018;23.670;2023-12-22T07:35:22;89905.50;;;0.80;100.00
44481;BME280;30184;42.018;23.670;2023-12-22T07:37:51;89910.69;;;0.87;100.00
44481;BME280;30184;42.018;23.670;2023-12-22T07:40:22;89902.91;;;0.96;100.00
44481;BME280;30184;42.018;23.670;2023-12-22T07:42:51;89913.13;;;1.01;100.00
44481;BME280;30184;42.018;23.670;2023-12-22T07:45:21;89921.78;;;1.05;100.00
44481;BME280;30184;42.018;23.670;2023-12-22T07:47:50;89915.66;;;1.08;100.00
44481;BME280;30184;42.018;23.670;2023-12-22T07:50:19;89916.75;;;1.11;100.00
44481;BME280;30184;42.018;23.670;2023-12-22T07:52:49;89916.66;;;1.15;100.00
44481;BME280;30184;42.018;23.670;2023-12-22T07:55:18;89919.28;;;1.18;100.00
44481;BME280;30184;42.018;23.670;2023-12-22T07:57:48;89874.31;;;0.93;100.00
44481;BME280;30184;42.018;23.670;2023-12-22T08:00:18;89908.44;;;1.25;100.00
44481;BME280;30184;42.018;23.670;2023-12-22T08:02:47;89934.06;;;1.23;100.00
44481;BME280;30184;42.018;23.670;2023-12-22T08:05:16;89931.38;;;1.23;100.00
44481;BME280;30184;42.018;23.670;2023-12-22T08:07:46;89865.66;;;1.09;100.00
44481;BME280;30184;42.018;23.670;2023-12-22T08:10:15;89914.25;;;1.40;100.00
44481;BME280;30184;42.018;23.670;2023-12-22T08:12:45;89885.31;;;1.19;100.00
44481;BME280;30184;42.018;23.670;2023-12-22T08:15:15;89906.56;;;1.42;100.00
44481;BME280;30184;42.018;23.670;2023-12-22T08:17:48;89904.41;;;1.37;100.00
44481;BME280;30184;42.018;23.670;2023-12-22T08:20:19;89918.81;;;1.59;100.00
44481;BME280;30184;42.018;23.670;2023-12-22T08:22:49;89918.34;;;1.64;100.00
44481;BME280;30184;42.018;23.670;2023-12-22T08:25:19;89834.66;;;1.11;100.00
44481;BME280;30184;42.018;23.670;2023-12-22T08:27:48;89919.22;;;1.58;100.00
44481;BME280;30184;42.018;23.670;2023-12-22T08:30:21;89920.69;;;1.78;100.00
44481;BME280;30184;42.018;23.670;2023-12-22T08:32:52;89908.94;;;1.76;100.00
44481;BME280;30184;42.018;23.670;2023-12-22T08:35:22;89922.56;;;1.81;100.00
44481;BME280;30184;42.018;23.670;2023-12-22T08:37:51;89914.72;;;1.91;100.00
44481;BME280;30184;42.018;23.670;2023-12-22T08:40:21;89909.53;;;2.00;100.00
44481;BME280;30184;42.018;23.670;2023-12-22T08:42:54;89923.94;;;2.06;100.00
44481;BME280;30184;42.018;23.670;2023-12-22T08:45:28;89910.47;;;2.09;100.00
44481;BME280;30184;42.018;23.670;2023-12-22T08:47:58;89920.34;;;2.12;99.84
44481;BME280;30184;42.018;23.670;2023-12-22T08:50:28;89905.06;;;2.13;99.61
44481;BME280;30184;42.018;23.670;2023-12-22T08:52:57;89817.59;;;1.61;99.86
44481;BME280;30184;42.018;23.670;2023-12-22T08:55:26;89920.78;;;2.27;100.00
44481;BME280;30184;42.018;23.670;2023-12-22T08:57:55;89920.59;;;2.34;99.91
44481;BME280;30184;42.018;23.670;2023-12-22T09:00:26;89923.09;;;2.41;99.61
44481;BME280;30184;42.018;23.670;2023-12-22T09:02:56;89839.25;;;1.99;99.71
44481;BME280;30184;42.018;23.670;2023-12-22T09:05:25;89889.16;;;2.38;99.79
44481;BME280;30184;42.018;23.670;2023-12-22T09:07:55;89911.09;;;2.78;99.57
44481;BME280;30184;42.018;23.670;2023-12-22T09:10:24;89907.75;;;2.90;98.47
44481;BME280;30184;42.018;23.670;2023-12-22T09:12:54;89908.78;;;3.09;98.46
44481;BME280;30184;42.018;23.670;2023-12-22T09:15:23;89913.25;;;3.28;97.76
44481;BME280;30184;42.018;23.670;2023-12-22T09:17:53;89902.47;;;3.45;97.29
44481;BME280;30184;42.018;23.670;2023-12-22T09:20:25;89906.69;;;3.58;96.30
44481;BME280;30184;42.018;23.670;2023-12-22T09:22:56;89906.06;;;3.67;94.04
44481;BME280;30184;42.018;23.670;2023-12-22T09:25:25;89900.16;;;3.72;93.46
44481;BME280;30184;42.018;23.670;2023-12-22T09:27:54;89900.72;;;3.80;94.01
44481;BME280;30184;42.018;23.670;2023-12-22T09:30:24;89890.53;;;3.87;93.85
44481;BME280;30184;42.018;23.670;2023-12-22T09:32:53;89892.03;;;3.88;93.16
44481;BME280;30184;42.018;23.670;2023-12-22T09:35:25;89891.16;;;3.91;93.45
44481;BME280;30184;42.018;23.670;2023-12-22T09:37:54;89923.91;;;3.86;93.18
44481;BME280;30184;42.018;23.670;2023-12-22T09:40:25;89888.28;;;3.98;93.64
44481;BME280;30184;42.018;23.670;2023-12-22T09:42:55;89887.31;;;4.05;93.80
44481;BME280;30184;42.018;23.670;2023-12-22T09:45:24;89877.22;;;4.09;93.66
44481;BME280;30184;42.018;23.670;2023-12-22T09:47:55;89873.25;;;4.13;93.35
44481;BME280;30184;42.018;23.670;2023-12-22T09:50:27;89881.09;;;4.21;93.31
44481;BME280;30184;42.018;23.670;2023-12-22T09:52:56;89881.19;;;4.17;93.62
44481;BME280;30184;42.018;23.670;2023-12-22T09:55:27;89897.09;;;4.24;93.58
44481;BME280;30184;42.018;23.670;2023-12-22T09:57:58;89858.09;;;4.20;93.76
44481;BME280;30184;42.018;23.670;2023-12-22T10:00:29;89877.31;;;4.43;93.80
44481;BME280;30184;42.018;23.670;2023-12-22T10:03:00;89879.34;;;4.52;93.88
44481;BME280;30184;42.018;23.670;2023-12-22T10:05:31;89871.91;;;4.56;93.24
44481;BME280;30184;42.018;23.670;2023-12-22T10:08:02;89872.97;;;4.59;92.72
44481;BME280;30184;42.018;23.670;2023-12-22T10:10:32;89872.22;;;4.58;92.27
44481;BME280;30184;42.018;23.670;2023-12-22T10:13:02;89833.16;;;4.44;92.52
44481;BME280;30184;42.018;23.670;2023-12-22T10:15:36;89852.97;;;4.72;92.53
44481;BME280;30184;42.018;23.670;2023-12-22T10:18:09;89857.69;;;4.81;92.18
44481;BME280;30184;42.018;23.670;2023-12-22T10:20:40;89851.22;;;4.78;91.71
44481;BME280;30184;42.018;23.670;2023-12-22T10:23:09;89856.94;;;5.02;91.89
44481;BME280;30184;42.018;23.670;2023-12-22T10:25:40;89860.78;;;5.14;91.91
44481;BME280;30184;42.018;23.670;2023-12-22T10:28:10;89850.34;;;5.16;91.67
44481;BME280;30184;42.018;23.670;2023-12-22T10:30:41;89846.69;;;5.10;90.94
44481;BME280;30184;42.018;23.670;2023-12-22T10:33:11;89855.78;;;5.25;90.86
44481;BME280;30184;42.018;23.670;2023-12-22T10:35:42;89844.22;;;5.15;90.95
44481;BME280;30184;42.018;23.670;2023-12-22T10:38:12;89847.34;;;5.36;91.14
44481;BME280;30184;42.018;23.670;2023-12-22T10:40:41;89835.44;;;5.46;91.41
44481;BME280;30184;42.018;23.670;2023-12-22T10:43:10;89829.06;;;5.52;91.11
44481;BME280;30184;42.018;23.670;2023-12-22T10:45:40;89822.06;;;5.55;90.54
44481;BME280;30184;42.018;23.670;2023-12-22T10:48:10;89835.78;;;5.57;90.26
44481;BME280;30184;42.018;23.670;2023-12-22T10:50:39;89814.38;;;5.22;90.07
44481;BME280;30184;42.018;23.670;2023-12-22T10:53:12;89847.03;;;5.55;89.89
44481;BME280;30184;42.018;23.670;2023-12-22T10:55:41;89845.53;;;5.54;89.73
44481;BME280;30184;42.018;23.670;2023-12-22T10:58:12;89840.69;;;5.49;90.13
44481;BME280;30184;42.018;23.670;2023-12-22T11:00:44;89819.69;;;5.35;90.72
44481;BME280;30184;42.018;23.670;2023-12-22T11:03:17;89813.41;;;5.38;91.40
44481;BME280;30184;42.018;23.670;2023-12-22T11:05:48;89821.16;;;5.58;91.92
44481;BME280;30184;42.018;23.670;2023-12-22T11:08:21;89821.59;;;5.56;92.29
44481;BME280;30184;42.018;23.670;2023-12-22T11:10:56;89822.66;;;5.59;93.28
44481;BME280;30184;42.018;23.670;2023-12-22T11:13:27;89872.47;;;5.63;93.36
44481;BME280;30184;42.018;23.670;2023-12-22T11:15:58;89866.50;;;5.69;93.31
44481;BME280;30184;42.018;23.670;2023-12-22T11:18:28;89783.31;;;5.52;93.40
44481;BME280;30184;42.018;23.670;2023-12-22T11:21:00;89815.00;;;5.79;93.50
44481;BME280;30184;42.018;23.670;2023-12-22T11:23:32;89819.34;;;5.86;93.60
44481;BME280;30184;42.018;23.670;2023-12-22T11:26:03;89791.75;;;5.63;93.77
44481;BME280;30184;42.018;23.670;2023-12-22T11:28:34;89836.91;;;5.69;94.13
44481;BME280;30184;42.018;23.670;2023-12-22T11:31:06;89795.53;;;5.75;94.21
44481;BME280;30184;42.018;23.670;2023-12-22T11:33:36;89793.09;;;5.68;94.15
44481;BME280;30184;42.018;23.670;2023-12-22T11:36:08;89789.53;;;5.71;94.13
44481;BME280;30184;42.018;23.670;2023-12-22T11:38:40;89796.25;;;5.67;94.16
44481;BME280;30184;42.018;23.670;2023-12-22T11:41:16;89785.78;;;5.69;93.63
44481;BME280;30184;42.018;23.670;2023-12-22T11:43:47;89783.22;;;5.56;93.66
44481;BME280;30184;42.018;23.670;2023-12-22T11:46:17;89805.81;;;5.68;94.20
44481;BME280;30184;42.018;23.670;2023-12-22T11:48:47;89762.53;;;5.22;94.23
44481;BME280;30184;42.018;23.670;2023-12-22T11:51:17;89796.81;;;5.61;94.66
44481;BME280;30184;42.018;23.670;2023-12-22T11:53:48;89799.63;;;5.58;94.86
44481;BME280;30184;42.018;23.670;2023-12-22T11:56:17;89802.03;;;5.56;95.29
44481;BME280;30184;42.018;23.670;2023-12-22T11:58:48;89793.41;;;5.39;95.22
44481;BME280;30184;42.018;23.670;2023-12-22T12:01:23;89802.28;;;5.49;95.27
44481;BME280;30184;42.018;23.670;2023-12-22T12:03:53;89694.09;;;4.61;95.96
44481;BME280;30184;42.018;23.670;2023-12-22T12:06:32;89799.38;;;5.34;96.86
44481;BME280;30184;42.018;23.670;2023-12-22T12:09:06;89799.06;;;5.32;97.71
44481;BME280;30184;42.018;23.670;2023-12-22T12:12:08;89802.31;;;5.27;99.05
44481;BME280;30184;42.018;23.670;2023-12-22T12:14:41;89796.03;;;5.30;98.63
44481;BME280;30184;42.018;23.670;2023-12-22T12:17:15;89655.19;;;4.44;98.14
44481;BME280;30184;42.018;23.670;2023-12-22T12:19:47;89781.28;;;5.35;96.90
44481;BME280;30184;42.018;23.670;2023-12-22T12:22:16;89788.03;;;5.39;96.55
44481;BME280;30184;42.018;23.670;2023-12-22T12:24:47;89732.09;;;5.03;97.44
44481;BME280;30184;42.018;23.670;2023-12-22T12:27:18;89783.97;;;5.35;100.00
44481;BME280;30184;42.018;23.670;2023-12-22T12:29:48;89750.59;;;5.23;100.00
44481;BME280;30184;42.018;23.670;2023-12-22T12:32:17;89531.25;;;3.80;100.00
44481;BME280;30184;42.018;23.670;2023-12-22T12:34:49;89727.53;;;5.13;100.00
44481;BME280;30184;42.018;23.670;2023-12-22T12:37:21;89746.34;;;5.35;100.00
44481;BME280;30184;42.018;23.670;2023-12-22T12:39:54;89803.44;;;5.70;100.00
44481;BME280;30184;42.018;23.670;2023-12-22T12:42:32;89825.69;;;5.39;100.00
44481;BME280;30184;42.018;23.670;2023-12-22T12:45:05;89793.88;;;5.47;100.00
44481;BME280;30184;42.018;23.670;2023-12-22T12:47:35;89739.25;;;4.97;100.00
44481;BME280;30184;42.018;23.670;2023-12-22T12:50:05;89745.81;;;4.96;100.00
44481;BME280;30184;42.018;23.670;2023-12-22T12:52:34;89781.94;;;5.17;100.00
44481;BME280;30184;42.018;23.670;2023-12-22T12:55:06;89807.22;;;5.29;100.00
44481;BME280;30184;42.018;23.670;2023-12-22T12:57:35;89807.06;;;5.23;100.00
44481;BME280;30184;42.018;23.670;2023-12-22T13:00:05;89830.75;;;5.15;100.00
44481;BME280;30184;42.018;23.670;2023-12-22T13:02:35;89862.34;;;5.24;100.00